sensor_id;sensor_type;location;lat;lon;timestamp;P1;durP1;ratioP1;P2;durP2;ratioP2
28180;SDS011;15464;50.988;10.318;2023-05-10T00:00:54;5.25;;;3.00;;
28180;SDS011;15464;50.988;10.318;2023-05-10T00:03:21;5.30;;;2.90;;
28180;SDS011;15464;50.988;10.318;2023-05-10T00:05:48;6.18;;;2.90;;
28180;SDS011;15464;50.988;10.318;2023-05-10T00:08:15;4.80;;;3.10;;
28180;SDS011;15464;50.988;10.318;2023-05-10T00:10:41;3.10;;;2.47;;
28180;SDS011;15464;50.988;10.318;2023-05-10T00:13:08;4.18;;;2.78;;
28180;SDS011;15464;50.988;10.318;2023-05-10T00:15:35;3.28;;;2.88;;
28180;SDS011;15464;50.988;10.318;2023-05-10T00:18:02;3.50;;;2.67;;
28180;SDS011;15464;50.988;10.318;2023-05-10T00:20:29;3.80;;;2.90;;
28180;SDS011;15464;50.988;10.318;2023-05-10T00:22:55;3.85;;;2.55;;
28180;SDS011;15464;50.988;10.318;2023-05-10T00:25:22;3.00;;;2.60;;
28180;SDS011;15464;50.988;10.318;2023-05-10T00:27:49;3.40;;;2.65;;
28180;SDS011;15464;50.988;10.318;2023-05-10T00:30:16;5.00;;;2.90;;
28180;SDS011;15464;50.988;10.318;2023-05-10T00:32:43;4.03;;;3.05;;
28180;SDS011;15464;50.988;10.318;2023-05-10T00:35:10;5.32;;;2.95;;
28180;SDS011;15464;50.988;10.318;2023-05-10T00:37:37;3.20;;;2.67;;
28180;SDS011;15464;50.988;10.318;2023-05-10T00:40:04;4.47;;;2.80;;
28180;SDS011;15464;50.988;10.318;2023-05-10T00:42:32;3.90;;;2.53;;
28180;SDS011;15464;50.988;10.318;2023-05-10T00:44:59;6.00;;;3.10;;
28180;SDS011;15464;50.988;10.318;2023-05-10T00:47:26;3.00;;;2.70;;
28180;SDS011;15464;50.988;10.318;2023-05-10T00:49:53;4.55;;;3.05;;
28180;SDS011;15464;50.988;10.318;2023-05-10T00:52:20;4.70;;;2.70;;
28180;SDS011;15464;50.988;10.318;2023-05-10T00:54:47;3.97;;;2.72;;
28180;SDS011;15464;50.988;10.318;2023-05-10T00:57:13;5.80;;;3.03;;
28180;SDS011;15464;50.988;10.318;2023-05-10T00:59:41;3.83;;;3.10;;
28180;SDS011;15464;50.988;10.318;2023-05-10T01:02:07;3.75;;;2.88;;
28180;SDS011;15464;50.988;10.318;2023-05-10T01:04:34;4.75;;;2.90;;
28180;SDS011;15464;50.988;10.318;2023-05-10T01:07:01;4.80;;;3.25;;
28180;SDS011;15464;50.988;10.318;2023-05-10T01:09:28;3.20;;;2.90;;
28180;SDS011;15464;50.988;10.318;2023-05-10T01:11:55;7.60;;;3.00;;
28180;SDS011;15464;50.988;10.318;2023-05-10T01:14:23;4.93;;;3.03;;
28180;SDS011;15464;50.988;10.318;2023-05-10T01:16:51;6.70;;;3.50;;
28180;SDS011;15464;50.988;10.318;2023-05-10T01:19:22;3.42;;;3.13;;
28180;SDS011;15464;50.988;10.318;2023-05-10T01:32:52;4.13;;;3.67;;
28180;SDS011;15464;50.988;10.318;2023-05-10T01:35:41;4.30;;;3.90;;
28180;SDS011;15464;50.988;10.318;2023-05-10T01:38:38;4.50;;;3.50;;
28180;SDS011;15464;50.988;10.318;2023-05-10T01:43:48;5.50;;;3.60;;
28180;SDS011;15464;50.988;10.318;2023-05-10T01:46:27;4.53;;;3.67;;
28180;SDS011;15464;50.988;10.318;2023-05-10T01:48:59;8.40;;;3.33;;
28180;SDS011;15464;50.988;10.318;2023-05-10T01:51:33;5.40;;;3.75;;
28180;SDS011;15464;50.988;10.318;2023-05-10T01:54:05;4.07;;;3.67;;
28180;SDS011;15464;50.988;10.318;2023-05-10T01:56:35;4.22;;;3.63;;
28180;SDS011;15464;50.988;10.318;2023-05-10T01:59:06;4.82;;;4.13;;
28180;SDS011;15464;50.988;10.318;2023-05-10T02:01:39;4.95;;;4.20;;
28180;SDS011;15464;50.988;10.318;2023-05-10T02:04:07;4.18;;;3.80;;
28180;SDS011;15464;50.988;10.318;2023-05-10T02:09:04;4.90;;;3.78;;
28180;SDS011;15464;50.988;10.318;2023-05-10T02:11:32;3.80;;;3.50;;
28180;SDS011;15464;50.988;10.318;2023-05-10T02:13:59;5.97;;;3.90;;
28180;SDS011;15464;50.988;10.318;2023-05-10T02:16:27;10.40;;;4.20;;
28180;SDS011;15464;50.988;10.318;2023-05-10T02:18:57;5.65;;;3.95;;
28180;SDS011;15464;50.988;10.318;2023-05-10T02:21:25;4.10;;;3.70;;
28180;SDS011;15464;50.988;10.318;2023-05-10T02:23:54;4.53;;;4.07;;
28180;SDS011;15464;50.988;10.318;2023-05-10T02:26:22;4.78;;;4.03;;
28180;SDS011;15464;50.988;10.318;2023-05-10T02:28:51;5.47;;;4.13;;
28180;SDS011;15464;50.988;10.318;2023-05-10T02:31:21;5.25;;;4.55;;
28180;SDS011;15464;50.988;10.318;2023-05-10T02:33:48;5.82;;;4.32;;
28180;SDS011;15464;50.988;10.318;2023-05-10T02:36:16;5.00;;;4.60;;
28180;SDS011;15464;50.988;10.318;2023-05-10T02:38:44;5.25;;;4.25;;
28180;SDS011;15464;50.988;10.318;2023-05-10T02:41:12;7.23;;;4.80;;
28180;SDS011;15464;50.988;10.318;2023-05-10T02:43:39;5.50;;;4.10;;
28180;SDS011;15464;50.988;10.318;2023-05-10T02:46:07;5.00;;;4.57;;
28180;SDS011;15464;50.988;10.318;2023-05-10T02:48:34;5.47;;;4.95;;
28180;SDS011;15464;50.988;10.318;2023-05-10T02:51:03;5.20;;;4.32;;
28180;SDS011;15464;50.988;10.318;2023-05-10T02:53:34;5.68;;;4.45;;
28180;SDS011;15464;50.988;10.318;2023-05-10T02:56:04;7.38;;;4.57;;
28180;SDS011;15464;50.988;10.318;2023-05-10T02:58:37;4.30;;;3.90;;
28180;SDS011;15464;50.988;10.318;2023-05-10T03:01:03;6.93;;;4.63;;
28180;SDS011;15464;50.988;10.318;2023-05-10T03:03:30;5.25;;;4.72;;
28180;SDS011;15464;50.988;10.318;2023-05-10T03:05:57;6.43;;;5.63;;
28180;SDS011;15464;50.988;10.318;2023-05-10T03:08:24;6.68;;;5.00;;
28180;SDS011;15464;50.988;10.318;2023-05-10T03:13:44;5.80;;;5.30;;
28180;SDS011;15464;50.988;10.318;2023-05-10T03:16:15;5.78;;;5.28;;
28180;SDS011;15464;50.988;10.318;2023-05-10T03:18:50;5.30;;;4.85;;
28180;SDS011;15464;50.988;10.318;2023-05-10T03:21:20;5.72;;;4.40;;
28180;SDS011;15464;50.988;10.318;2023-05-10T03:23:56;5.07;;;4.68;;
28180;SDS011;15464;50.988;10.318;2023-05-10T03:26:26;6.20;;;4.40;;
28180;SDS011;15464;50.988;10.318;2023-05-10T03:28:55;6.10;;;5.50;;
28180;SDS011;15464;50.988;10.318;2023-05-10T03:31:22;6.78;;;6.18;;
28180;SDS011;15464;50.988;10.318;2023-05-10T03:33:49;5.82;;;5.22;;
28180;SDS011;15464;50.988;10.318;2023-05-10T03:36:17;7.00;;;5.65;;
28180;SDS011;15464;50.988;10.318;2023-05-10T03:38:44;5.80;;;4.72;;
28180;SDS011;15464;50.988;10.318;2023-05-10T03:41:11;5.32;;;4.93;;
28180;SDS011;15464;50.988;10.318;2023-05-10T03:43:37;7.18;;;5.50;;
28180;SDS011;15464;50.988;10.318;2023-05-10T03:46:04;6.00;;;5.43;;
28180;SDS011;15464;50.988;10.318;2023-05-10T03:48:32;6.03;;;5.40;;
28180;SDS011;15464;50.988;10.318;2023-05-10T03:50:59;6.65;;;5.03;;
28180;SDS011;15464;50.988;10.318;2023-05-10T03:53:26;7.28;;;5.78;;
28180;SDS011;15464;50.988;10.318;2023-05-10T03:55:53;5.40;;;4.90;;
28180;SDS011;15464;50.988;10.318;2023-05-10T03:58:19;5.90;;;5.30;;
28180;SDS011;15464;50.988;10.318;2023-05-10T04:00:46;5.95;;;5.35;;
28180;SDS011;15464;50.988;10.318;2023-05-10T04:03:13;5.63;;;5.07;;
28180;SDS011;15464;50.988;10.318;2023-05-10T04:05:40;6.35;;;5.70;;
28180;SDS011;15464;50.988;10.318;2023-05-10T04:08:07;6.65;;;5.97;;
28180;SDS011;15464;50.988;10.318;2023-05-10T04:10:33;8.18;;;6.35;;
28180;SDS011;15464;50.988;10.318;2023-05-10T04:13:00;6.45;;;5.85;;
28180;SDS011;15464;50.988;10.318;2023-05-10T04:15:27;8.18;;;5.65;;
28180;SDS011;15464;50.988;10.318;2023-05-10T04:17:54;8.02;;;6.53;;
28180;SDS011;15464;50.988;10.318;2023-05-10T04:20:20;6.43;;;5.75;;
28180;SDS011;15464;50.988;10.318;2023-05-10T04:22:47;6.28;;;5.68;;
28180;SDS011;15464;50.988;10.318;2023-05-10T04:25:14;7.13;;;5.50;;
28180;SDS011;15464;50.988;10.318;2023-05-10T04:27:40;6.75;;;5.63;;
28180;SDS011;15464;50.988;10.318;2023-05-10T04:30:07;5.63;;;4.35;;
28180;SDS011;15464;50.988;10.318;2023-05-10T04:32:35;4.95;;;4.45;;
28180;SDS011;15464;50.988;10.318;2023-05-10T04:35:01;6.45;;;5.10;;
28180;SDS011;15464;50.988;10.318;2023-05-10T04:37:30;5.50;;;4.45;;
28180;SDS011;15464;50.988;10.318;2023-05-10T04:39:57;5.85;;;5.25;;
28180;SDS011;15464;50.988;10.318;2023-05-10T04:42:26;4.90;;;4.50;;
28180;SDS011;15464;50.988;10.318;2023-05-10T04:44:52;4.75;;;4.22;;
28180;SDS011;15464;50.988;10.318;2023-05-10T04:47:19;5.13;;;4.55;;
28180;SDS011;15464;50.988;10.318;2023-05-10T04:49:46;5.32;;;4.78;;
28180;SDS011;15464;50.988;10.318;2023-05-10T04:52:12;4.90;;;4.50;;
28180;SDS011;15464;50.988;10.318;2023-05-10T04:54:40;5.40;;;3.90;;
28180;SDS011;15464;50.988;10.318;2023-05-10T04:57:07;4.10;;;3.70;;
28180;SDS011;15464;50.988;10.318;2023-05-10T04:59:35;4.32;;;3.92;;
28180;SDS011;15464;50.988;10.318;2023-05-10T05:02:03;4.70;;;4.30;;
28180;SDS011;15464;50.988;10.318;2023-05-10T05:04:31;4.32;;;3.83;;
28180;SDS011;15464;50.988;10.318;2023-05-10T05:06:57;4.78;;;3.85;;
28180;SDS011;15464;50.988;10.318;2023-05-10T05:09:24;4.40;;;3.72;;
28180;SDS011;15464;50.988;10.318;2023-05-10T05:11:51;4.45;;;3.78;;
28180;SDS011;15464;50.988;10.318;2023-05-10T05:14:17;3.92;;;3.63;;
28180;SDS011;15464;50.988;10.318;2023-05-10T05:16:44;4.20;;;3.80;;
28180;SDS011;15464;50.988;10.318;2023-05-10T05:19:10;3.63;;;3.33;;
28180;SDS011;15464;50.988;10.318;2023-05-10T05:21:37;4.25;;;3.55;;
28180;SDS011;15464;50.988;10.318;2023-05-10T05:24:04;4.20;;;3.85;;
28180;SDS011;15464;50.988;10.318;2023-05-10T05:26:32;4.65;;;3.90;;
28180;SDS011;15464;50.988;10.318;2023-05-10T05:28:58;9.48;;;3.80;;
28180;SDS011;15464;50.988;10.318;2023-05-10T05:31:25;4.93;;;3.80;;
28180;SDS011;15464;50.988;10.318;2023-05-10T05:33:52;5.18;;;4.32;;
28180;SDS011;15464;50.988;10.318;2023-05-10T05:36:18;4.38;;;3.97;;
28180;SDS011;15464;50.988;10.318;2023-05-10T05:38:45;4.28;;;3.88;;
28180;SDS011;15464;50.988;10.318;2023-05-10T05:41:11;4.93;;;3.97;;
28180;SDS011;15464;50.988;10.318;2023-05-10T05:43:38;4.13;;;3.65;;
28180;SDS011;15464;50.988;10.318;2023-05-10T05:46:05;4.13;;;3.72;;
28180;SDS011;15464;50.988;10.318;2023-05-10T05:48:32;6.85;;;4.13;;
28180;SDS011;15464;50.988;10.318;2023-05-10T05:50:59;4.13;;;3.80;;
28180;SDS011;15464;50.988;10.318;2023-05-10T05:53:25;3.60;;;3.30;;
28180;SDS011;15464;50.988;10.318;2023-05-10T05:55:56;4.65;;;3.60;;
28180;SDS011;15464;50.988;10.318;2023-05-10T05:58:24;4.70;;;3.60;;
28180;SDS011;15464;50.988;10.318;2023-05-10T06:00:52;3.80;;;3.42;;
28180;SDS011;15464;50.988;10.318;2023-05-10T06:03:19;3.78;;;3.40;;
28180;SDS011;15464;50.988;10.318;2023-05-10T06:05:46;3.55;;;3.25;;
28180;SDS011;15464;50.988;10.318;2023-05-10T06:08:14;3.53;;;3.22;;
28180;SDS011;15464;50.988;10.318;2023-05-10T06:10:40;3.80;;;2.90;;
28180;SDS011;15464;50.988;10.318;2023-05-10T06:13:07;3.20;;;2.90;;
28180;SDS011;15464;50.988;10.318;2023-05-10T06:15:34;3.10;;;2.80;;
28180;SDS011;15464;50.988;10.318;2023-05-10T06:18:01;3.97;;;2.30;;
28180;SDS011;15464;50.988;10.318;2023-05-10T06:20:27;2.40;;;2.20;;
28180;SDS011;15464;50.988;10.318;2023-05-10T06:22:54;1.98;;;1.80;;
28180;SDS011;15464;50.988;10.318;2023-05-10T06:25:21;2.28;;;1.70;;
28180;SDS011;15464;50.988;10.318;2023-05-10T06:27:47;1.55;;;1.27;;
28180;SDS011;15464;50.988;10.318;2023-05-10T06:30:19;1.48;;;1.38;;
28180;SDS011;15464;50.988;10.318;2023-05-10T06:32:46;1.50;;;1.40;;
28180;SDS011;15464;50.988;10.318;2023-05-10T06:35:13;2.05;;;1.30;;
28180;SDS011;15464;50.988;10.318;2023-05-10T06:37:40;2.08;;;1.00;;
28180;SDS011;15464;50.988;10.318;2023-05-10T06:40:07;0.80;;;0.80;;
28180;SDS011;15464;50.988;10.318;2023-05-10T06:42:34;0.80;;;0.80;;
28180;SDS011;15464;50.988;10.318;2023-05-10T06:45:00;1.00;;;0.80;;
28180;SDS011;15464;50.988;10.318;2023-05-10T06:47:27;0.65;;;0.60;;
28180;SDS011;15464;50.988;10.318;2023-05-10T06:49:54;1.13;;;0.77;;
28180;SDS011;15464;50.988;10.318;2023-05-10T06:52:22;0.93;;;0.60;;
28180;SDS011;15464;50.988;10.318;2023-05-10T06:54:49;1.52;;;0.50;;
28180;SDS011;15464;50.988;10.318;2023-05-10T06:57:16;3.30;;;1.73;;
28180;SDS011;15464;50.988;10.318;2023-05-10T06:59:56;0.60;;;0.60;;
28180;SDS011;15464;50.988;10.318;2023-05-10T07:02:24;1.00;;;0.70;;
28180;SDS011;15464;50.988;10.318;2023-05-10T07:04:50;1.08;;;0.77;;
28180;SDS011;15464;50.988;10.318;2023-05-10T07:07:18;2.67;;;0.85;;
28180;SDS011;15464;50.988;10.318;2023-05-10T07:09:45;1.35;;;1.00;;
28180;SDS011;15464;50.988;10.318;2023-05-10T07:12:12;1.35;;;0.63;;
28180;SDS011;15464;50.988;10.318;2023-05-10T07:14:41;0.63;;;0.45;;
28180;SDS011;15464;50.988;10.318;2023-05-10T07:17:08;0.90;;;0.60;;
28180;SDS011;15464;50.988;10.318;2023-05-10T07:19:35;1.48;;;0.63;;
28180;SDS011;15464;50.988;10.318;2023-05-10T07:22:02;0.55;;;0.50;;
28180;SDS011;15464;50.988;10.318;2023-05-10T07:24:29;0.40;;;0.40;;
28180;SDS011;15464;50.988;10.318;2023-05-10T07:26:57;0.50;;;0.50;;
28180;SDS011;15464;50.988;10.318;2023-05-10T07:29:24;1.17;;;0.70;;
28180;SDS011;15464;50.988;10.318;2023-05-10T07:31:51;0.73;;;0.60;;
28180;SDS011;15464;50.988;10.318;2023-05-10T07:34:18;2.13;;;0.70;;
28180;SDS011;15464;50.988;10.318;2023-05-10T07:36:44;0.75;;;0.75;;
28180;SDS011;15464;50.988;10.318;2023-05-10T07:39:11;0.85;;;0.80;;
28180;SDS011;15464;50.988;10.318;2023-05-10T07:41:51;1.92;;;0.55;;
28180;SDS011;15464;50.988;10.318;2023-05-10T07:44:18;0.75;;;0.63;;
28180;SDS011;15464;50.988;10.318;2023-05-10T07:46:46;0.85;;;0.60;;
28180;SDS011;15464;50.988;10.318;2023-05-10T07:49:13;1.10;;;0.70;;
28180;SDS011;15464;50.988;10.318;2023-05-10T07:51:40;0.45;;;0.45;;
28180;SDS011;15464;50.988;10.318;2023-05-10T07:54:08;0.50;;;0.40;;
28180;SDS011;15464;50.988;10.318;2023-05-10T07:56:35;0.60;;;0.60;;
28180;SDS011;15464;50.988;10.318;2023-05-10T07:59:02;0.98;;;0.50;;
28180;SDS011;15464;50.988;10.318;2023-05-10T08:01:33;1.35;;;0.50;;
28180;SDS011;15464;50.988;10.318;2023-05-10T08:04:00;0.80;;;0.50;;
28180;SDS011;15464;50.988;10.318;2023-05-10T08:06:28;2.45;;;0.70;;
28180;SDS011;15464;50.988;10.318;2023-05-10T08:08:56;0.65;;;0.60;;
28180;SDS011;15464;50.988;10.318;2023-05-10T08:11:23;1.05;;;0.57;;
28180;SDS011;15464;50.988;10.318;2023-05-10T08:13:50;0.70;;;0.60;;
28180;SDS011;15464;50.988;10.318;2023-05-10T08:16:17;0.90;;;0.60;;
28180;SDS011;15464;50.988;10.318;2023-05-10T08:18:44;0.65;;;0.50;;
28180;SDS011;15464;50.988;10.318;2023-05-10T08:21:13;1.10;;;0.63;;
28180;SDS011;15464;50.988;10.318;2023-05-10T08:23:41;2.33;;;0.63;;
28180;SDS011;15464;50.988;10.318;2023-05-10T08:26:10;1.00;;;0.63;;
28180;SDS011;15464;50.988;10.318;2023-05-10T08:28:37;1.17;;;0.60;;
28180;SDS011;15464;50.988;10.318;2023-05-10T08:31:04;0.68;;;0.65;;
28180;SDS011;15464;50.988;10.318;2023-05-10T08:33:31;2.53;;;0.60;;
28180;SDS011;15464;50.988;10.318;2023-05-10T08:35:58;1.52;;;0.80;;
28180;SDS011;15464;50.988;10.318;2023-05-10T08:38:25;0.95;;;0.80;;
28180;SDS011;15464;50.988;10.318;2023-05-10T08:40:52;1.48;;;0.85;;
28180;SDS011;15464;50.988;10.318;2023-05-10T08:43:27;0.75;;;0.60;;
28180;SDS011;15464;50.988;10.318;2023-05-10T08:45:55;1.08;;;0.70;;
28180;SDS011;15464;50.988;10.318;2023-05-10T08:48:23;0.73;;;0.68;;
28180;SDS011;15464;50.988;10.318;2023-05-10T08:50:52;1.63;;;0.60;;
28180;SDS011;15464;50.988;10.318;2023-05-10T08:53:23;0.90;;;0.65;;
28180;SDS011;15464;50.988;10.318;2023-05-10T08:55:53;1.55;;;0.60;;
28180;SDS011;15464;50.988;10.318;2023-05-10T08:58:19;1.15;;;0.60;;
28180;SDS011;15464;50.988;10.318;2023-05-10T09:00:48;2.25;;;0.90;;
28180;SDS011;15464;50.988;10.318;2023-05-10T09:03:17;0.70;;;0.70;;
28180;SDS011;15464;50.988;10.318;2023-05-10T09:05:44;1.27;;;0.70;;
28180;SDS011;15464;50.988;10.318;2023-05-10T09:08:12;0.70;;;0.70;;
28180;SDS011;15464;50.988;10.318;2023-05-10T09:10:42;1.92;;;1.10;;
28180;SDS011;15464;50.988;10.318;2023-05-10T09:13:10;1.10;;;0.60;;
28180;SDS011;15464;50.988;10.318;2023-05-10T09:15:38;0.93;;;0.80;;
28180;SDS011;15464;50.988;10.318;2023-05-10T09:18:05;2.97;;;1.42;;
28180;SDS011;15464;50.988;10.318;2023-05-10T09:20:32;0.85;;;0.70;;
28180;SDS011;15464;50.988;10.318;2023-05-10T09:22:58;1.25;;;0.80;;
28180;SDS011;15464;50.988;10.318;2023-05-10T09:25:25;2.05;;;0.75;;
28180;SDS011;15464;50.988;10.318;2023-05-10T09:27:52;1.25;;;0.90;;
28180;SDS011;15464;50.988;10.318;2023-05-10T09:30:26;2.90;;;0.90;;
28180;SDS011;15464;50.988;10.318;2023-05-10T09:32:55;2.25;;;1.15;;
28180;SDS011;15464;50.988;10.318;2023-05-10T09:35:23;1.00;;;0.93;;
28180;SDS011;15464;50.988;10.318;2023-05-10T09:37:55;1.27;;;0.70;;
28180;SDS011;15464;50.988;10.318;2023-05-10T09:40:24;1.00;;;0.90;;
28180;SDS011;15464;50.988;10.318;2023-05-10T09:42:53;1.10;;;1.00;;
28180;SDS011;15464;50.988;10.318;2023-05-10T09:45:27;1.15;;;0.88;;
28180;SDS011;15464;50.988;10.318;2023-05-10T09:47:58;1.00;;;0.90;;
28180;SDS011;15464;50.988;10.318;2023-05-10T09:50:27;2.45;;;0.90;;
28180;SDS011;15464;50.988;10.318;2023-05-10T09:52:55;2.08;;;0.90;;
28180;SDS011;15464;50.988;10.318;2023-05-10T09:55:48;2.25;;;1.00;;
28180;SDS011;15464;50.988;10.318;2023-05-10T09:58:15;1.30;;;1.00;;
28180;SDS011;15464;50.988;10.318;2023-05-10T10:00:43;1.13;;;1.02;;
28180;SDS011;15464;50.988;10.318;2023-05-10T10:03:18;1.20;;;1.00;;
28180;SDS011;15464;50.988;10.318;2023-05-10T10:05:46;2.63;;;1.30;;
28180;SDS011;15464;50.988;10.318;2023-05-10T10:08:14;1.50;;;1.20;;
28180;SDS011;15464;50.988;10.318;2023-05-10T10:10:42;2.40;;;0.98;;
28180;SDS011;15464;50.988;10.318;2023-05-10T10:13:13;1.20;;;1.00;;
28180;SDS011;15464;50.988;10.318;2023-05-10T10:15:41;1.45;;;1.17;;
28180;SDS011;15464;50.988;10.318;2023-05-10T10:20:43;1.50;;;1.10;;
28180;SDS011;15464;50.988;10.318;2023-05-10T10:23:10;1.58;;;1.48;;
28180;SDS011;15464;50.988;10.318;2023-05-10T10:25:37;2.15;;;1.55;;
28180;SDS011;15464;50.988;10.318;2023-05-10T10:28:14;2.95;;;1.33;;
28180;SDS011;15464;50.988;10.318;2023-05-10T10:30:53;1.40;;;1.05;;
28180;SDS011;15464;50.988;10.318;2023-05-10T10:36:14;2.67;;;1.00;;
28180;SDS011;15464;50.988;10.318;2023-05-10T10:41:27;1.13;;;1.02;;
28180;SDS011;15464;50.988;10.318;2023-05-10T10:50:03;2.38;;;0.80;;
28180;SDS011;15464;50.988;10.318;2023-05-10T10:52:32;1.73;;;1.20;;
28180;SDS011;15464;50.988;10.318;2023-05-10T10:55:14;1.23;;;0.93;;
28180;SDS011;15464;50.988;10.318;2023-05-10T10:57:51;1.65;;;0.95;;
28180;SDS011;15464;50.988;10.318;2023-05-10T11:00:31;1.13;;;1.00;;
28180;SDS011;15464;50.988;10.318;2023-05-10T11:07:59;2.63;;;1.08;;
28180;SDS011;15464;50.988;10.318;2023-05-10T11:10:26;1.65;;;1.02;;
28180;SDS011;15464;50.988;10.318;2023-05-10T11:13:00;1.23;;;1.13;;
28180;SDS011;15464;50.988;10.318;2023-05-10T11:15:35;1.05;;;0.95;;
28180;SDS011;15464;50.988;10.318;2023-05-10T11:18:19;3.60;;;1.00;;
28180;SDS011;15464;50.988;10.318;2023-05-10T11:20:57;2.17;;;0.77;;
28180;SDS011;15464;50.988;10.318;2023-05-10T11:26:10;2.15;;;1.10;;
28180;SDS011;15464;50.988;10.318;2023-05-10T11:28:44;1.08;;;0.98;;
28180;SDS011;15464;50.988;10.318;2023-05-10T11:31:15;1.23;;;0.90;;
28180;SDS011;15464;50.988;10.318;2023-05-10T11:36:15;1.85;;;1.00;;
28180;SDS011;15464;50.988;10.318;2023-05-10T11:38:43;1.92;;;0.90;;
28180;SDS011;15464;50.988;10.318;2023-05-10T11:41:10;1.60;;;0.90;;
28180;SDS011;15464;50.988;10.318;2023-05-10T11:43:38;4.43;;;1.17;;
28180;SDS011;15464;50.988;10.318;2023-05-10T11:46:07;1.00;;;0.90;;
28180;SDS011;15464;50.988;10.318;2023-05-10T11:48:38;3.45;;;0.98;;
28180;SDS011;15464;50.988;10.318;2023-05-10T11:51:09;1.45;;;0.80;;
28180;SDS011;15464;50.988;10.318;2023-05-10T11:53:37;1.80;;;1.20;;
28180;SDS011;15464;50.988;10.318;2023-05-10T11:56:07;1.77;;;0.80;;
28180;SDS011;15464;50.988;10.318;2023-05-10T11:58:36;1.67;;;0.90;;
28180;SDS011;15464;50.988;10.318;2023-05-10T12:01:04;1.40;;;1.10;;
28180;SDS011;15464;50.988;10.318;2023-05-10T12:03:32;2.38;;;1.00;;
28180;SDS011;15464;50.988;10.318;2023-05-10T12:06:00;2.38;;;1.10;;
28180;SDS011;15464;50.988;10.318;2023-05-10T12:08:28;1.00;;;0.65;;
28180;SDS011;15464;50.988;10.318;2023-05-10T12:11:08;1.45;;;1.02;;
28180;SDS011;15464;50.988;10.318;2023-05-10T12:13:40;0.95;;;0.90;;
28180;SDS011;15464;50.988;10.318;2023-05-10T12:16:15;1.20;;;1.10;;
28180;SDS011;15464;50.988;10.318;2023-05-10T12:18:43;1.55;;;0.90;;
28180;SDS011;15464;50.988;10.318;2023-05-10T12:21:12;0.90;;;0.77;;
28180;SDS011;15464;50.988;10.318;2023-05-10T12:23:39;3.22;;;1.00;;
28180;SDS011;15464;50.988;10.318;2023-05-10T12:26:06;0.77;;;0.70;;
28180;SDS011;15464;50.988;10.318;2023-05-10T12:28:35;1.67;;;0.90;;
28180;SDS011;15464;50.988;10.318;2023-05-10T12:31:02;1.10;;;0.75;;
28180;SDS011;15464;50.988;10.318;2023-05-10T12:33:36;1.95;;;0.98;;
28180;SDS011;15464;50.988;10.318;2023-05-10T12:36:05;4.57;;;0.90;;
28180;SDS011;15464;50.988;10.318;2023-05-10T12:38:33;3.03;;;0.82;;
28180;SDS011;15464;50.988;10.318;2023-05-10T12:41:02;3.78;;;0.88;;
28180;SDS011;15464;50.988;10.318;2023-05-10T12:43:31;1.83;;;1.10;;
28180;SDS011;15464;50.988;10.318;2023-05-10T12:45:58;3.08;;;1.60;;
28180;SDS011;15464;50.988;10.318;2023-05-10T12:48:25;2.30;;;1.40;;
28180;SDS011;15464;50.988;10.318;2023-05-10T12:50:52;7.28;;;2.25;;
28180;SDS011;15464;50.988;10.318;2023-05-10T12:53:18;2.78;;;1.52;;
28180;SDS011;15464;50.988;10.318;2023-05-10T12:55:46;2.83;;;2.05;;
28180;SDS011;15464;50.988;10.318;2023-05-10T12:58:12;2.22;;;1.92;;
28180;SDS011;15464;50.988;10.318;2023-05-10T13:01:00;2.08;;;1.48;;
28180;SDS011;15464;50.988;10.318;2023-05-10T13:03:27;3.97;;;1.73;;
28180;SDS011;15464;50.988;10.318;2023-05-10T13:05:54;1.70;;;1.50;;
28180;SDS011;15464;50.988;10.318;2023-05-10T13:08:20;1.45;;;1.20;;
28180;SDS011;15464;50.988;10.318;2023-05-10T13:10:47;2.90;;;1.13;;
28180;SDS011;15464;50.988;10.318;2023-05-10T13:13:15;1.10;;;0.90;;
28180;SDS011;15464;50.988;10.318;2023-05-10T13:15:42;1.30;;;0.85;;
28180;SDS011;15464;50.988;10.318;2023-05-10T13:18:08;1.48;;;0.80;;
28180;SDS011;15464;50.988;10.318;2023-05-10T13:20:35;1.67;;;1.13;;
28180;SDS011;15464;50.988;10.318;2023-05-10T13:23:02;1.90;;;1.23;;
28180;SDS011;15464;50.988;10.318;2023-05-10T13:25:29;1.45;;;1.00;;
28180;SDS011;15464;50.988;10.318;2023-05-10T13:27:56;1.00;;;0.85;;
28180;SDS011;15464;50.988;10.318;2023-05-10T13:30:22;3.42;;;2.45;;
28180;SDS011;15464;50.988;10.318;2023-05-10T13:32:50;1.30;;;1.00;;
28180;SDS011;15464;50.988;10.318;2023-05-10T13:35:17;1.33;;;0.98;;
28180;SDS011;15464;50.988;10.318;2023-05-10T13:37:43;2.20;;;1.30;;
28180;SDS011;15464;50.988;10.318;2023-05-10T13:40:10;2.35;;;1.10;;
28180;SDS011;15464;50.988;10.318;2023-05-10T13:42:37;4.32;;;1.02;;
28180;SDS011;15464;50.988;10.318;2023-05-10T13:45:04;1.00;;;0.90;;
28180;SDS011;15464;50.988;10.318;2023-05-10T13:47:32;1.15;;;1.05;;
28180;SDS011;15464;50.988;10.318;2023-05-10T13:49:59;1.20;;;1.10;;
28180;SDS011;15464;50.988;10.318;2023-05-10T13:52:26;2.25;;;1.20;;
28180;SDS011;15464;50.988;10.318;2023-05-10T13:54:52;2.28;;;1.38;;
28180;SDS011;15464;50.988;10.318;2023-05-10T13:57:21;2.97;;;1.30;;
28180;SDS011;15464;50.988;10.318;2023-05-10T13:59:49;2.25;;;1.10;;
28180;SDS011;15464;50.988;10.318;2023-05-10T14:02:16;1.42;;;1.10;;
28180;SDS011;15464;50.988;10.318;2023-05-10T14:04:43;1.60;;;1.10;;
28180;SDS011;15464;50.988;10.318;2023-05-10T14:07:10;1.67;;;1.52;;
28180;SDS011;15464;50.988;10.318;2023-05-10T14:09:36;1.50;;;1.40;;
28180;SDS011;15464;50.988;10.318;2023-05-10T14:12:03;1.85;;;1.25;;
28180;SDS011;15464;50.988;10.318;2023-05-10T14:14:30;3.20;;;1.70;;
28180;SDS011;15464;50.988;10.318;2023-05-10T14:16:56;2.38;;;1.90;;
28180;SDS011;15464;50.988;10.318;2023-05-10T14:19:23;1.48;;;1.38;;
28180;SDS011;15464;50.988;10.318;2023-05-10T14:21:50;1.23;;;1.13;;
28180;SDS011;15464;50.988;10.318;2023-05-10T14:24:18;1.42;;;1.00;;
28180;SDS011;15464;50.988;10.318;2023-05-10T14:26:44;1.83;;;1.20;;
28180;SDS011;15464;50.988;10.318;2023-05-10T14:29:11;1.50;;;1.10;;
28180;SDS011;15464;50.988;10.318;2023-05-10T14:31:38;4.65;;;1.30;;
28180;SDS011;15464;50.988;10.318;2023-05-10T14:34:05;3.42;;;1.17;;
28180;SDS011;15464;50.988;10.318;2023-05-10T14:36:32;1.48;;;0.98;;
28180;SDS011;15464;50.988;10.318;2023-05-10T14:38:58;2.08;;;1.08;;
28180;SDS011;15464;50.988;10.318;2023-05-10T14:41:25;1.60;;;1.20;;
28180;SDS011;15464;50.988;10.318;2023-05-10T14:43:52;2.50;;;1.20;;
28180;SDS011;15464;50.988;10.318;2023-05-10T14:46:19;2.22;;;1.40;;
28180;SDS011;15464;50.988;10.318;2023-05-10T14:48:46;4.65;;;1.58;;
28180;SDS011;15464;50.988;10.318;2023-05-10T14:51:12;2.40;;;1.13;;
28180;SDS011;15464;50.988;10.318;2023-05-10T14:53:39;4.22;;;1.38;;
28180;SDS011;15464;50.988;10.318;2023-05-10T14:56:06;3.47;;;1.60;;
28180;SDS011;15464;50.988;10.318;2023-05-10T14:58:33;4.18;;;1.70;;
28180;SDS011;15464;50.988;10.318;2023-05-10T15:00:59;2.40;;;1.35;;
28180;SDS011;15464;50.988;10.318;2023-05-10T15:03:27;5.20;;;1.33;;
28180;SDS011;15464;50.988;10.318;2023-05-10T15:05:55;1.73;;;1.17;;
28180;SDS011;15464;50.988;10.318;2023-05-10T15:08:23;2.20;;;1.25;;
28180;SDS011;15464;50.988;10.318;2023-05-10T15:10:54;3.80;;;1.55;;
28180;SDS011;15464;50.988;10.318;2023-05-10T15:13:22;4.85;;;1.30;;
28180;SDS011;15464;50.988;10.318;2023-05-10T15:15:48;3.15;;;1.60;;
28180;SDS011;15464;50.988;10.318;2023-05-10T15:18:15;4.07;;;1.48;;
28180;SDS011;15464;50.988;10.318;2023-05-10T15:20:42;1.90;;;1.40;;
28180;SDS011;15464;50.988;10.318;2023-05-10T15:23:09;5.47;;;1.60;;